Jaime Ramos

Olheiro - Athletic Bilbao
21 Out 2027
Quinta-feira
Processo

Personalidade

Adaptabilidade (8) Ambição (15) Controvérsia (1) Lealdade (16) Pressão (19) Profissionalismo (1) Espírito Esportivo (2) Temperamento (15)

Perfil

Estilo de Treinamento Democrático
Licença Nacional B
Determinação 7
Gestão de Pessoas 9
Motivação 15
Disciplina 7
Satisfação no Trabalho
77%
Fadiga
0%
Função Olheiro
Salário 118.5K p/s
Contrato 14.03.2029

Desempenho

Comportamento Bom
Eficácia do Treinamento
33%
Desenvolvimento do Jogador
40%
Prevenção de Lesões
35%
Implementação Tática
40%

Eventos Recentes

Participou de uma reunião de recrutamento agora
Participou de uma reunião de recrutamento agora
Participou de uma reunião de recrutamento 7d atrás
Participou de uma reunião de recrutamento 7d atrás
Observou uma partida 7d atrás
Observou uma partida 7d atrás
Observou uma partida 7d atrás
Observou uma partida 7d atrás

Monitorando agora

81
Jogador Clube Status Habilidade Confiança Observado Última observação Último voto
Kevin Vazquez Cruz Azul Ativo 135 / 126 40% 8 30.05.2027 -
Caleb Yirenkyi Coventry City Ativo 140 / 149 40% 2 30.05.2027 -
Yusi Alavés Ativo 127 / 127 40% 3 25.05.2027 -
Christos Mouzakitis Hull City Ativo 128 / 143 40% 2 25.05.2027 -
Jorrel Hato Chelsea Ativo 150 / 145 40% 5 05.05.2027 -
Warren Zaïre-Emery Paris Saint-Germain Ativo 160 / 168 40% 2 05.05.2027 -
Ibrahim Maza Bayer Leverkusen Ativo 148 / 155 40% 1 05.05.2027 -
Dylan Lawlor Cardiff City Ativo 115 / 126 40% 2 04.05.2027 -
Alpha Touré FC Metz Ativo 111 / 112 40% 1 04.05.2027 -
David Valencia Alianza Petrolera Ativo 118 / 136 40% 2 30.04.2027 -
Samuel Lucero Defensa y Justicia Ativo 115 / 107 40% 1 30.04.2027 -
Lucas Høgsberg RC Strasbourg Ativo 140 / 145 40% 1 30.04.2027 -
Louis Leroux FC Nantes Ativo 131 / 120 40% 1 29.04.2027 -
Valentin Atangana Al-Ahli Ativo 135 / 127 40% 1 29.04.2027 -
Sascha Britschgi Padova Ativo 113 / 129 40% 1 26.04.2027 -
Josh King Chelsea Ativo 136 / 154 40% 1 26.04.2027 -
Lucas Agazzi Defensor Sporting Ativo 111 / 118 40% 2 16.04.2027 -
Johan Manzambi Newcastle United Ativo 144 / 139 40% 1 16.04.2027 -
Khalis Merah Toulouse FC Ativo 123 / 121 40% 1 15.04.2027 -
Yan Diomandé Real Madrid Ativo 146 / 154 40% 4 27.12.2026 -
Antoni Milambo Brentford Ativo 137 / 141 40% 1 27.12.2026 -
Matthijs de Ligt Manchester United Ativo 152 / 155 40% 1 25.12.2026 -
Ilaix Moriba Celta Ativo 143 / 159 40% 1 25.12.2026 -
Rico Lewis Manchester City Ativo 151 / 154 40% 3 23.12.2026 -
Carlos Augusto Inter Ativo 147 / 140 40% 1 23.12.2026 -
Luís Guilherme Sporting CP Ativo 132 / 132 40% 1 22.12.2026 -
Kauã Elias Anderlecht Ativo 127 / 127 40% 2 20.12.2026 -
William Gomes Porto Ativo 147 / 137 40% 1 20.12.2026 -
Declan Rice Arsenal Ativo 189 / 189 40% 4 19.12.2026 -
Pedri Barcelona Ativo 180 / 170 40% 5 19.12.2026 -
Nico González Newcastle United Ativo 159 / 160 40% 2 18.12.2026 -
Willian Pacho Paris Saint-Germain Ativo 160 / 159 40% 1 18.12.2026 -
Jeremie Frimpong Liverpool Ativo 158 / 168 40% 1 18.12.2026 -
Javi Rodríguez Celta Ativo 143 / 158 40% 2 17.12.2026 -
Jan Paul van Hecke Tottenham Ativo 162 / 154 40% 1 17.12.2026 -
Vitinha Paris Saint-Germain Ativo 176 / 170 40% 1 17.12.2026 -
Adam Wharton Crystal Palace Ativo 148 / 150 40% 2 16.12.2026 -
Johnny Cardoso Atlético Madrid Ativo 153 / 158 40% 1 16.12.2026 -
Tino Livramento Newcastle United Ativo 161 / 159 40% 1 16.12.2026 -
Senny Mayulu Paris Saint-Germain Ativo 136 / 144 40% 1 15.12.2026 -
Alexis Mac Allister Liverpool Ativo 159 / 166 40% 2 14.12.2026 -
Gavi Barcelona Ativo 160 / 165 40% 1 14.12.2026 -
Matías Gómez Granada Ativo 115 / 125 40% 1 13.12.2026 -
Pape Guèye Villarreal Ativo 149 / 159 40% 2 09.12.2026 -
Eduardo Camavinga Real Madrid Ativo 173 / 161 40% 1 09.12.2026 Mais informações
Mats Wieffer Brighton Ativo 142 / 151 40% 2 08.12.2026 -
Nico O'Reilly Manchester City Ativo 155 / 160 40% 3 07.12.2026 -
Endrick Real Madrid Ativo 150 / 150 40% 2 07.12.2026 -
Sidiki Chérif Coventry City Ativo 123 / 122 40% 1 06.12.2026 -
Othmane Maamma Watford Ativo 131 / 119 40% 2 05.12.2026 -
Jonás Luna Santa Clara Ativo 118 / 115 40% 1 05.12.2026 -
Kenan Yıldız Juventus Ativo 159 / 162 40% 1 04.12.2026 -
Noah Sadiki Sunderland Ativo 145 / 140 40% 1 04.12.2026 -
Pierre Kalulu Juventus Ativo 153 / 143 40% 1 02.12.2026 -
Aurélien Tchouaméni Real Madrid Ativo 163 / 176 40% 1 01.12.2026 Mais informações
William Saliba Arsenal Ativo 178 / 173 40% 1 30.11.2026 -
Martín Zubimendi Arsenal Ativo 159 / 154 40% 1 30.11.2026 -
Désiré Doué Paris Saint-Germain Ativo 160 / 166 40% 2 28.11.2026 -
Levi Colwill Chelsea Ativo 153 / 165 40% 1 27.11.2026 -
Alessandro Buongiorno Sassuolo Perdido 159 / 163 40% 1 27.11.2026 Mais informações
Manu Koné AS Roma Ativo 158 / 160 40% 1 27.11.2026 -
Moisés Caicedo Chelsea Ativo 166 / 176 40% 2 26.11.2026 -
Hector Ramirez Newcastle United Ativo 148 / 155 40% 1 26.11.2026 -
Ethan Williams Peterborough United Ativo 119 / 112 40% 2 25.11.2026 -
El Hadji Malick Diouf Brentford Ativo 135 / 150 40% 1 24.11.2026 -
Jan Virgili Club Brugge Ativo 124 / 136 40% 1 23.11.2026 -
Marc Guéhi Manchester City Ativo 169 / 171 40% 1 21.11.2026 -
James Garner Everton Ativo 156 / 155 40% 1 19.11.2026 -
Pablo Barrios Atlético Madrid Ativo 154 / 149 40% 1 19.11.2026 -
José Ángel Carmona Sevilla Ativo 139 / 142 40% 2 18.11.2026 -
Alejandro Balde Barcelona Ativo 160 / 150 40% 1 18.11.2026 -
Boubacar Kamara Aston Villa Ativo 165 / 156 40% 1 17.11.2026 Mais informações
Javier Mena Portimonense Ativo 112 / 122 40% 1 17.11.2026 -
Rayan Bournemouth Ativo 138 / 131 40% 1 17.11.2026 -
Assane Diao Lazio Ativo 148 / 143 40% 1 12.11.2026 -
Sven Botman Newcastle United Ativo 163 / 159 40% 1 10.11.2026 -
Sandro Tonali Tottenham Ativo 170 / 163 40% 1 10.11.2026 -
Conor Gallagher Tottenham Ativo 146 / 143 40% 1 08.11.2026 -
Jarrad Branthwaite Everton Ativo 148 / 153 40% 1 05.11.2026 -
Jesús Rodríguez Como Ativo 147 / 140 40% 1 05.11.2026 -
Alan Forneris Racing Club Ativo 105 / 118 40% 1 03.08.2026 -